createdAt,value
2022-11-18T00:01:31.213Z,0.60
2022-11-18T00:03:58.097Z,0.60
2022-11-18T00:06:25.784Z,0.47
2022-11-18T00:08:52.933Z,0.90
2022-11-18T00:11:40.087Z,2.00
2022-11-18T00:14:29.215Z,2.50
2022-11-18T00:16:59.668Z,2.20
2022-11-18T00:19:27.451Z,1.67
2022-11-18T00:21:54.212Z,1.30
2022-11-18T00:24:21.054Z,1.10
2022-11-18T00:26:47.681Z,1.40
2022-11-18T00:29:14.731Z,2.60
2022-11-18T00:31:41.397Z,3.60
2022-11-18T00:34:07.968Z,2.85
2022-11-18T00:36:34.328Z,2.88
2022-11-18T00:39:00.722Z,2.97
2022-11-18T00:41:47.007Z,2.70
2022-11-18T00:44:13.820Z,1.85
2022-11-18T00:46:40.226Z,1.05
2022-11-18T00:49:06.664Z,0.98
2022-11-18T00:51:33.055Z,0.80
2022-11-18T00:53:59.492Z,0.90
2022-11-18T00:56:25.911Z,0.90
2022-11-18T00:58:52.316Z,0.70
2022-11-18T01:01:18.757Z,0.73
2022-11-18T01:03:45.206Z,0.57
2022-11-18T01:06:11.576Z,0.80
2022-11-18T01:08:37.997Z,0.60
2022-11-18T01:11:23.137Z,0.80
2022-11-18T01:13:50.247Z,0.80
2022-11-18T01:16:20.651Z,0.52
2022-11-18T01:18:47.131Z,0.80
2022-11-18T01:21:13.598Z,0.70
2022-11-18T01:23:39.986Z,0.50
2022-11-18T01:26:07.699Z,0.60
2022-11-18T01:28:34.183Z,0.70
2022-11-18T01:31:08.132Z,0.90
2022-11-18T01:33:34.659Z,1.80
2022-11-18T01:36:01.083Z,3.03
2022-11-18T01:38:30.198Z,4.32
2022-11-18T01:40:56.895Z,3.60
2022-11-18T01:43:23.808Z,4.50
2022-11-18T01:45:51.337Z,3.90
2022-11-18T01:48:28.739Z,3.10
2022-11-18T01:50:56.822Z,2.75
2022-11-18T01:53:28.976Z,3.45
2022-11-18T01:55:56.462Z,4.70
2022-11-18T01:58:25.968Z,5.65
2022-11-18T02:03:18.879Z,5.78
2022-11-18T02:05:46.797Z,6.55
2022-11-18T02:08:13.950Z,6.68
2022-11-18T02:10:40.341Z,6.07
2022-11-18T02:13:08.131Z,5.47
2022-11-18T02:15:40.443Z,6.75
2022-11-18T02:18:11.650Z,5.45
2022-11-18T02:20:40.936Z,3.05
2022-11-18T02:23:16.306Z,2.10
2022-11-18T02:26:01.522Z,1.67
2022-11-18T02:28:41.454Z,1.70
2022-11-18T02:31:10.805Z,2.78
2022-11-18T02:33:49.818Z,4.88
2022-11-18T02:36:19.182Z,5.70
2022-11-18T02:38:49.196Z,4.40
2022-11-18T02:41:21.825Z,4.53
2022-11-18T02:43:51.384Z,5.57
2022-11-18T02:48:47.129Z,5.07
2022-11-18T02:53:40.739Z,4.22
2022-11-18T02:56:08.229Z,3.30
2022-11-18T02:58:34.556Z,3.20
2022-11-18T03:01:01.591Z,4.28
2022-11-18T03:03:29.408Z,4.15
2022-11-18T03:06:07.758Z,4.20
2022-11-18T03:08:54.423Z,3.83
2022-11-18T03:11:23.459Z,4.07
2022-11-18T03:14:00.377Z,4.13
2022-11-18T03:16:35.628Z,4.28
2022-11-18T03:19:08.820Z,3.55
2022-11-18T03:21:37.548Z,2.28
2022-11-18T03:24:09.665Z,1.60
2022-11-18T03:26:38.404Z,1.20
2022-11-18T03:29:16.390Z,2.38
2022-11-18T03:31:47.149Z,4.32
2022-11-18T03:34:16.509Z,5.75
2022-11-18T03:36:51.639Z,6.93
2022-11-18T03:39:19.825Z,8.88
2022-11-18T03:41:49.475Z,4.70
2022-11-18T03:46:44.390Z,0.85
2022-11-18T03:49:13.367Z,0.70
2022-11-18T03:51:42.264Z,0.50
2022-11-18T03:54:12.186Z,0.47
2022-11-18T03:56:46.285Z,0.40
2022-11-18T03:59:15.930Z,0.50
2022-11-18T04:02:03.659Z,0.30
2022-11-18T04:04:30.356Z,0.40
2022-11-18T04:07:08.848Z,0.30
2022-11-18T04:09:42.505Z,0.25
2022-11-18T04:12:11.006Z,0.35
2022-11-18T04:14:38.534Z,0.40
2022-11-18T04:17:09.875Z,0.30
2022-11-18T04:19:36.454Z,0.30
2022-11-18T04:22:03.345Z,0.20
2022-11-18T04:24:29.772Z,0.30
2022-11-18T04:26:56.219Z,0.35
2022-11-18T04:29:22.640Z,0.47
2022-11-18T04:31:48.988Z,0.32
2022-11-18T04:34:15.410Z,0.30
2022-11-18T04:36:41.832Z,0.30
2022-11-18T04:39:08.350Z,0.40
2022-11-18T04:41:53.396Z,0.40
2022-11-18T04:44:20.078Z,0.47
2022-11-18T04:46:46.509Z,0.40
2022-11-18T04:49:13.834Z,0.40
2022-11-18T04:51:40.919Z,0.20
2022-11-18T04:54:07.667Z,0.30
2022-11-18T04:56:34.321Z,0.32
2022-11-18T04:59:01.585Z,0.52
2022-11-18T05:01:28.718Z,1.10
2022-11-18T05:03:55.411Z,0.85
2022-11-18T05:06:22.063Z,0.90
2022-11-18T05:08:48.421Z,0.70
2022-11-18T05:11:33.599Z,0.47
2022-11-18T05:13:59.927Z,0.40
2022-11-18T05:16:26.344Z,0.65
2022-11-18T05:18:52.812Z,0.75
2022-11-18T05:21:19.257Z,1.10
2022-11-18T05:23:45.672Z,1.13
2022-11-18T05:26:12.202Z,1.35
2022-11-18T05:28:38.752Z,0.85
2022-11-18T05:31:09.283Z,0.70
2022-11-18T05:33:35.741Z,0.50
2022-11-18T05:36:06.139Z,0.50
2022-11-18T05:38:33.078Z,0.57
2022-11-18T05:40:59.873Z,0.60
2022-11-18T05:43:26.212Z,0.63
2022-11-18T05:45:52.685Z,0.57
2022-11-18T05:48:19.334Z,0.80
2022-11-18T05:50:46.911Z,0.80
2022-11-18T05:53:13.272Z,0.70
2022-11-18T05:55:42.662Z,0.75
2022-11-18T05:58:09.022Z,0.57
2022-11-18T06:00:35.861Z,0.68
2022-11-18T06:03:04.306Z,0.80
2022-11-18T06:05:30.664Z,0.65
2022-11-18T06:07:57.207Z,1.00
2022-11-18T06:10:30.101Z,0.75
2022-11-18T06:13:00.178Z,1.75
2022-11-18T06:15:28.836Z,4.40
2022-11-18T06:18:21.875Z,3.93
2022-11-18T06:20:48.561Z,1.58
2022-11-18T06:23:15.113Z,1.10
2022-11-18T06:25:41.829Z,0.80
2022-11-18T06:28:09.611Z,0.80
2022-11-18T06:30:35.964Z,0.98
2022-11-18T06:33:02.658Z,1.50
2022-11-18T06:35:29.025Z,2.22
2022-11-18T06:37:55.361Z,2.00
2022-11-18T06:40:21.809Z,1.30
2022-11-18T06:43:07.321Z,1.50
2022-11-18T06:45:38.165Z,3.00
2022-11-18T06:48:05.326Z,1.92
2022-11-18T06:50:31.730Z,1.27
2022-11-18T06:53:02.057Z,1.13
2022-11-18T06:55:28.418Z,1.00
2022-11-18T06:57:58.131Z,0.80
2022-11-18T07:00:24.612Z,1.15
2022-11-18T07:02:51.002Z,1.15
2022-11-18T07:05:17.408Z,0.90
2022-11-18T07:07:43.859Z,1.00
2022-11-18T07:10:10.494Z,1.08
2022-11-18T07:12:36.934Z,0.82
2022-11-18T07:15:03.983Z,0.63
2022-11-18T07:17:30.697Z,0.90
2022-11-18T07:19:57.102Z,0.73
2022-11-18T07:22:23.444Z,1.00
2022-11-18T07:24:49.906Z,0.60
2022-11-18T07:27:16.270Z,0.90
2022-11-18T07:29:42.786Z,1.40
2022-11-18T07:32:09.150Z,2.58
2022-11-18T07:34:35.601Z,2.20
2022-11-18T07:37:02.045Z,1.92
2022-11-18T07:39:28.389Z,3.00
2022-11-18T07:41:54.739Z,2.97
2022-11-18T07:44:21.490Z,3.00
2022-11-18T07:46:47.845Z,3.45
2022-11-18T07:49:14.167Z,3.90
2022-11-18T07:51:40.725Z,3.45
2022-11-18T07:54:11.031Z,2.50
2022-11-18T07:56:37.529Z,3.03
2022-11-18T07:59:04.683Z,3.30
2022-11-18T08:01:31.362Z,3.33
2022-11-18T08:03:58.684Z,3.45
2022-11-18T08:06:25.165Z,3.13
2022-11-18T08:08:52.459Z,3.15
2022-11-18T08:11:22.705Z,3.40
2022-11-18T08:13:49.666Z,2.67
2022-11-18T08:16:20.306Z,2.72
2022-11-18T08:18:47.064Z,2.92
2022-11-18T08:21:14.299Z,3.50
2022-11-18T08:23:42.409Z,1.90
2022-11-18T08:26:09.340Z,1.60
2022-11-18T08:28:35.952Z,2.72
2022-11-18T08:31:22.660Z,7.55
2022-11-18T08:33:49.720Z,4.93
2022-11-18T08:36:17.888Z,3.60
2022-11-18T08:38:44.319Z,2.58
2022-11-18T08:41:14.487Z,2.45
2022-11-18T08:43:41.186Z,2.10
2022-11-18T08:46:07.546Z,2.50
2022-11-18T08:48:33.996Z,2.40
2022-11-18T08:51:00.822Z,1.77
2022-11-18T08:53:27.172Z,0.90
2022-11-18T08:55:57.543Z,0.80
2022-11-18T08:58:24.220Z,0.65
2022-11-18T09:00:50.612Z,0.60
2022-11-18T09:03:17.387Z,0.57
2022-11-18T09:05:43.814Z,0.70
2022-11-18T09:08:10.248Z,0.85
2022-11-18T09:10:37.277Z,0.90
2022-11-18T09:13:33.376Z,0.70
2022-11-18T09:15:50.181Z,0.60
2022-11-18T09:18:19.274Z,0.50
2022-11-18T09:20:53.945Z,1.48
2022-11-18T09:23:20.362Z,1.20
2022-11-18T09:25:46.786Z,1.40
2022-11-18T09:28:13.199Z,0.77
2022-11-18T09:30:39.586Z,0.50
2022-11-18T09:33:07.119Z,0.63
2022-11-18T09:35:34.062Z,0.57
2022-11-18T09:38:00.662Z,0.82
2022-11-18T09:40:27.742Z,1.25
2022-11-18T09:43:16.934Z,1.10
2022-11-18T09:45:45.881Z,0.88
2022-11-18T09:48:15.609Z,0.75
2022-11-18T09:50:49.682Z,0.70
2022-11-18T09:53:24.809Z,0.82
2022-11-18T09:55:52.442Z,1.42
2022-11-18T09:58:22.620Z,0.90
2022-11-18T10:00:49.019Z,0.60
2022-11-18T10:03:26.188Z,0.60
2022-11-18T10:06:04.000Z,0.80
2022-11-18T10:08:30.326Z,2.05
2022-11-18T10:11:25.836Z,1.70
2022-11-18T10:14:17.150Z,1.70
2022-11-18T10:16:46.641Z,1.15
2022-11-18T10:19:31.534Z,1.50
2022-11-18T10:22:22.704Z,1.30
2022-11-18T10:24:55.273Z,1.40
2022-11-18T10:27:22.142Z,1.55
2022-11-18T10:29:53.165Z,1.40
2022-11-18T10:32:19.643Z,0.82
2022-11-18T10:34:56.482Z,1.48
2022-11-18T10:37:38.786Z,0.50
2022-11-18T10:40:22.819Z,0.47
2022-11-18T10:42:49.192Z,0.50
2022-11-18T10:45:21.695Z,0.50
2022-11-18T10:48:02.258Z,0.50
2022-11-18T10:50:33.453Z,0.60
2022-11-18T10:52:59.965Z,0.50
2022-11-18T10:55:27.387Z,0.40
2022-11-18T10:58:01.793Z,0.40
2022-11-18T11:00:48.469Z,0.60
2022-11-18T11:03:29.714Z,0.85
2022-11-18T11:06:18.249Z,1.00
2022-11-18T11:08:52.331Z,1.13
2022-11-18T11:11:26.069Z,1.08
2022-11-18T11:13:54.474Z,0.68
2022-11-18T11:16:26.142Z,0.80
2022-11-18T11:18:55.314Z,0.80
2022-11-18T11:21:25.515Z,0.60
2022-11-18T11:23:52.063Z,0.50
2022-11-18T11:29:23.890Z,0.73
2022-11-18T11:31:56.345Z,1.10
2022-11-18T11:34:37.136Z,1.05
2022-11-18T11:37:09.412Z,0.73
2022-11-18T11:39:54.333Z,0.80
2022-11-18T11:42:26.511Z,0.60
2022-11-18T11:44:55.906Z,0.50
2022-11-18T11:47:41.026Z,0.40
2022-11-18T11:50:23.045Z,0.50
2022-11-18T11:53:02.115Z,0.50
2022-11-18T11:55:32.033Z,0.85
2022-11-18T11:58:16.985Z,0.70
2022-11-18T12:00:49.754Z,0.40
2022-11-18T12:03:22.090Z,0.50
2022-11-18T12:05:48.569Z,0.40
2022-11-18T12:08:30.801Z,0.52
2022-11-18T12:10:59.966Z,0.52
2022-11-18T12:13:38.076Z,0.50
2022-11-18T12:16:18.453Z,0.60
2022-11-18T12:19:02.699Z,0.50
2022-11-18T12:21:47.310Z,0.50
2022-11-18T12:24:20.624Z,0.50
2022-11-18T12:26:48.328Z,0.70
2022-11-18T12:29:20.881Z,0.90
2022-11-18T12:31:48.799Z,0.50
2022-11-18T12:34:34.001Z,0.60
2022-11-18T12:37:19.113Z,0.50
2022-11-18T12:39:47.139Z,0.40
2022-11-18T12:42:51.165Z,0.57
2022-11-18T12:45:56.873Z,0.55
2022-11-18T12:48:27.876Z,0.40
2022-11-18T12:50:55.848Z,0.47
2022-11-18T12:53:34.808Z,0.60
2022-11-18T12:56:09.478Z,0.70
2022-11-18T12:58:35.935Z,0.50
2022-11-18T13:01:06.378Z,0.55
2022-11-18T13:03:33.434Z,0.80
2022-11-18T13:06:02.623Z,0.70
2022-11-18T13:08:29.158Z,0.70
2022-11-18T13:11:17.512Z,0.50
2022-11-18T13:13:44.215Z,0.60
2022-11-18T13:16:47.335Z,0.57
2022-11-18T13:19:23.718Z,0.40
2022-11-18T13:22:12.483Z,0.50
2022-11-18T13:24:43.753Z,0.40
2022-11-18T13:27:16.513Z,0.40
2022-11-18T13:29:54.053Z,0.40
2022-11-18T13:32:25.082Z,0.50
2022-11-18T13:34:52.924Z,0.75
2022-11-18T13:37:29.474Z,0.60
2022-11-18T13:39:57.472Z,0.40
2022-11-18T13:42:27.782Z,0.43
2022-11-18T13:44:55.715Z,0.60
2022-11-18T13:47:25.669Z,0.70
2022-11-18T13:50:10.868Z,0.60
2022-11-18T13:52:40.398Z,0.63
2022-11-18T13:57:34.681Z,0.60
2022-11-18T14:00:03.639Z,0.60
2022-11-18T14:02:30.116Z,0.70
2022-11-18T14:04:58.396Z,0.70
2022-11-18T14:07:24.876Z,0.63
2022-11-18T14:10:00.629Z,0.70
2022-11-18T14:12:32.360Z,0.60
2022-11-18T14:15:17.548Z,0.60
2022-11-18T14:17:51.155Z,0.70
2022-11-18T14:20:17.868Z,0.60
2022-11-18T14:22:44.385Z,0.50
2022-11-18T14:25:19.214Z,0.85
2022-11-18T14:27:45.673Z,1.10
2022-11-18T14:30:30.775Z,0.90
2022-11-18T14:33:06.367Z,0.85
2022-11-18T14:35:34.811Z,1.20
2022-11-18T14:38:35.405Z,1.00
2022-11-18T14:40:54.502Z,1.38
2022-11-18T14:43:20.966Z,1.30
2022-11-18T14:45:47.294Z,1.20
2022-11-18T14:48:15.830Z,1.20
2022-11-18T14:50:42.247Z,0.98
2022-11-18T14:53:11.514Z,1.00
2022-11-18T14:55:37.987Z,0.90
2022-11-18T14:58:04.315Z,1.00
2022-11-18T15:00:30.800Z,0.70
2022-11-18T15:02:57.357Z,0.93
2022-11-18T15:05:23.782Z,0.70
2022-11-18T15:07:50.395Z,0.90
2022-11-18T15:10:18.079Z,0.70
2022-11-18T15:12:44.510Z,0.80
2022-11-18T15:15:11.480Z,0.90
2022-11-18T15:17:37.978Z,0.77
2022-11-18T15:20:04.581Z,1.00
2022-11-18T15:22:30.918Z,0.93
2022-11-18T15:24:57.375Z,0.90
2022-11-18T15:27:23.703Z,0.82
2022-11-18T15:29:50.382Z,1.02
2022-11-18T15:32:16.776Z,1.30
2022-11-18T15:34:43.179Z,1.50
2022-11-18T15:37:11.799Z,2.10
2022-11-18T15:39:38.137Z,2.35
2022-11-18T15:42:04.624Z,2.70
2022-11-18T15:44:30.999Z,2.40
2022-11-18T15:46:58.389Z,2.17
2022-11-18T15:49:24.899Z,2.53
2022-11-18T15:51:51.678Z,2.38
2022-11-18T15:54:18.355Z,2.17
2022-11-18T15:56:45.123Z,1.90
2022-11-18T15:59:12.984Z,1.60
2022-11-18T16:01:40.894Z,1.83
2022-11-18T16:04:08.403Z,2.33
2022-11-18T16:06:35.221Z,3.17
2022-11-18T16:09:01.713Z,2.90
2022-11-18T16:11:47.309Z,2.20
2022-11-18T16:14:14.609Z,2.42
2022-11-18T16:16:41.812Z,2.90
2022-11-18T16:19:09.672Z,3.38
2022-11-18T16:21:45.359Z,3.70
2022-11-18T16:24:13.010Z,4.07
2022-11-18T16:26:39.426Z,3.55
2022-11-18T16:29:07.695Z,3.38
2022-11-18T16:31:40.375Z,2.38
2022-11-18T16:34:07.753Z,2.40
2022-11-18T16:36:34.519Z,1.38
2022-11-18T16:39:08.157Z,1.48
2022-11-18T16:41:34.932Z,1.83
2022-11-18T16:44:03.598Z,3.90
2022-11-18T16:46:31.211Z,4.43
2022-11-18T16:48:57.560Z,3.40
2022-11-18T16:51:27.993Z,2.15
2022-11-18T16:54:04.603Z,2.17
2022-11-18T16:56:32.920Z,1.60
2022-11-18T16:59:00.692Z,1.30
2022-11-18T17:01:29.549Z,1.55
2022-11-18T17:03:56.911Z,1.25
2022-11-18T17:06:24.150Z,2.03
2022-11-18T17:08:51.206Z,1.90
2022-11-18T17:11:17.927Z,1.92
2022-11-18T17:13:45.152Z,1.85
2022-11-18T17:16:13.045Z,1.10
2022-11-18T17:18:39.653Z,0.98
2022-11-18T17:21:11.030Z,1.02
2022-11-18T17:23:37.579Z,0.60
2022-11-18T17:26:04.629Z,0.88
2022-11-18T17:28:31.450Z,0.82
2022-11-18T17:30:58.090Z,0.73
2022-11-18T17:33:24.746Z,0.82
2022-11-18T17:36:04.577Z,0.88
2022-11-18T17:38:33.796Z,1.35
2022-11-18T17:41:00.358Z,1.15
2022-11-18T17:43:27.540Z,1.02
2022-11-18T17:45:55.472Z,0.80
2022-11-18T17:48:22.860Z,0.57
2022-11-18T17:50:49.374Z,0.80
2022-11-18T17:53:16.104Z,0.75
2022-11-18T17:55:42.757Z,0.90
2022-11-18T17:58:09.995Z,0.75
2022-11-18T18:00:36.947Z,1.00
2022-11-18T18:03:03.995Z,0.82
2022-11-18T18:05:30.366Z,0.77
2022-11-18T18:07:57.303Z,0.70
2022-11-18T18:10:24.414Z,0.90
2022-11-18T18:13:09.216Z,0.85
2022-11-18T18:15:35.638Z,0.82
2022-11-18T18:18:03.580Z,0.80
2022-11-18T18:20:30.164Z,0.80
2022-11-18T18:22:57.177Z,0.90
2022-11-18T18:25:24.504Z,1.27
2022-11-18T18:27:52.311Z,1.08
2022-11-18T18:30:18.832Z,1.10
2022-11-18T18:32:50.949Z,0.82
2022-11-18T18:35:18.783Z,1.00
2022-11-18T18:37:45.435Z,0.80
2022-11-18T18:40:12.241Z,1.15
2022-11-18T18:42:38.685Z,1.38
2022-11-18T18:45:23.995Z,0.90
2022-11-18T18:47:50.465Z,0.93
2022-11-18T18:50:17.180Z,1.15
2022-11-18T18:52:43.927Z,1.00
2022-11-18T18:55:10.303Z,1.17
2022-11-18T18:57:37.503Z,1.00
2022-11-18T19:00:04.600Z,1.20
2022-11-18T19:02:31.428Z,1.20
2022-11-18T19:04:59.786Z,1.30
2022-11-18T19:07:27.881Z,1.02
2022-11-18T19:09:54.409Z,1.35
2022-11-18T19:12:39.555Z,1.15
2022-11-18T19:15:06.183Z,1.20
2022-11-18T19:17:32.854Z,1.00
2022-11-18T19:20:18.041Z,1.20
2022-11-18T19:22:44.465Z,1.10
2022-11-18T19:25:10.922Z,1.40
2022-11-18T19:27:40.115Z,1.10
2022-11-18T19:30:06.975Z,1.13
2022-11-18T19:32:36.759Z,1.10
2022-11-18T19:35:06.439Z,1.30
2022-11-18T19:37:32.953Z,0.80
2022-11-18T19:40:05.655Z,1.05
2022-11-18T19:42:39.654Z,0.75
2022-11-18T19:45:07.404Z,0.80
2022-11-18T19:47:33.732Z,1.10
2022-11-18T19:50:00.275Z,1.05
2022-11-18T19:52:26.784Z,1.10
2022-11-18T19:54:53.433Z,1.00
2022-11-18T19:57:20.159Z,0.85
2022-11-18T19:59:46.583Z,1.20
2022-11-18T20:02:13.041Z,0.85
2022-11-18T20:04:39.957Z,0.82
2022-11-18T20:07:06.423Z,0.77
2022-11-18T20:09:32.885Z,0.80
2022-11-18T20:11:59.366Z,0.90
2022-11-18T20:14:25.774Z,1.20
2022-11-18T20:16:52.615Z,0.95
2022-11-18T20:19:19.253Z,0.95
2022-11-18T20:21:47.927Z,1.00
2022-11-18T20:24:15.983Z,1.08
2022-11-18T20:26:42.880Z,1.27
2022-11-18T20:29:09.281Z,1.90
2022-11-18T20:31:36.503Z,2.08
2022-11-18T20:34:03.705Z,2.70
2022-11-18T20:36:31.384Z,2.53
2022-11-18T20:39:08.391Z,2.30
2022-11-18T20:41:36.475Z,1.80
2022-11-18T20:44:03.188Z,1.73
2022-11-18T20:46:29.603Z,1.92
2022-11-18T20:48:56.245Z,2.08
2022-11-18T20:51:23.882Z,2.80
2022-11-18T20:53:51.262Z,2.50
2022-11-18T20:56:21.359Z,3.10
2022-11-18T20:58:48.074Z,2.73
2022-11-18T21:01:18.884Z,2.30
2022-11-18T21:03:49.622Z,1.80
2022-11-18T21:06:15.925Z,1.70
2022-11-18T21:08:42.309Z,1.90
2022-11-18T21:11:09.704Z,1.80
2022-11-18T21:13:55.036Z,1.45
2022-11-18T21:16:22.149Z,1.30
2022-11-18T21:18:48.810Z,1.00
2022-11-18T21:21:33.747Z,1.00
2022-11-18T21:24:01.128Z,1.40
2022-11-18T21:26:28.457Z,1.02
2022-11-18T21:28:56.134Z,0.80
2022-11-18T21:31:23.683Z,0.90
2022-11-18T21:33:50.158Z,0.95
2022-11-18T21:36:16.574Z,1.05
2022-11-18T21:38:43.211Z,0.98
2022-11-18T21:41:09.679Z,1.05
2022-11-18T21:44:04.067Z,0.70
2022-11-18T21:46:23.899Z,1.15
2022-11-18T21:48:50.313Z,1.25
2022-11-18T21:51:18.750Z,0.98
2022-11-18T21:53:46.058Z,0.93
2022-11-18T21:56:22.855Z,1.58
2022-11-18T21:58:49.750Z,1.25
2022-11-18T22:01:17.774Z,1.23
2022-11-18T22:03:47.767Z,1.08
2022-11-18T22:06:17.588Z,1.38
2022-11-18T22:08:44.495Z,1.48
2022-11-18T22:11:12.287Z,1.38
2022-11-18T22:13:38.990Z,0.80
2022-11-18T22:16:07.146Z,1.10
2022-11-18T22:18:35.084Z,1.38
2022-11-18T22:21:02.374Z,1.30
2022-11-18T22:23:29.411Z,1.30
2022-11-18T22:25:59.552Z,1.02
2022-11-18T22:28:26.074Z,1.10
2022-11-18T22:30:53.207Z,1.10
2022-11-18T22:33:19.736Z,1.10
2022-11-18T22:35:46.358Z,1.35
2022-11-18T22:38:12.870Z,1.20
2022-11-18T22:40:39.272Z,1.10
2022-11-18T22:43:05.749Z,1.23
2022-11-18T22:45:32.159Z,1.30
2022-11-18T22:47:58.818Z,1.20
2022-11-18T22:50:25.184Z,1.85
2022-11-18T22:52:51.637Z,1.90
2022-11-18T22:55:18.153Z,1.80
2022-11-18T22:57:45.193Z,1.27
2022-11-18T23:00:11.926Z,1.55
2022-11-18T23:02:38.266Z,1.60
2022-11-18T23:05:04.917Z,1.05
2022-11-18T23:07:31.535Z,1.20
2022-11-18T23:09:58.078Z,1.17
2022-11-18T23:12:47.572Z,1.33
2022-11-18T23:15:14.261Z,1.00
2022-11-18T23:17:40.660Z,1.23
2022-11-18T23:20:07.483Z,1.27
2022-11-18T23:22:33.881Z,1.15
2022-11-18T23:25:00.298Z,1.17
2022-11-18T23:27:27.780Z,1.25
2022-11-18T23:29:54.168Z,1.02
2022-11-18T23:32:20.541Z,1.00
2022-11-18T23:34:48.240Z,1.20
2022-11-18T23:37:14.637Z,1.33
2022-11-18T23:39:40.956Z,1.20
2022-11-18T23:42:07.338Z,1.17
2022-11-18T23:44:46.123Z,1.10
2022-11-18T23:47:13.157Z,1.33
2022-11-18T23:49:39.521Z,1.10
2022-11-18T23:52:05.983Z,0.80
2022-11-18T23:54:32.317Z,1.00
2022-11-18T23:56:58.721Z,1.10
2022-11-18T23:59:25.067Z,0.90
